sensor_id;sensor_type;location;lat;lon;timestamp;P1;durP1;ratioP1;P2;durP2;ratioP2
14187;SDS011;7175;51.978;5.330;2023-07-16T00:00:29;21.17;;;19.80;;
14187;SDS011;7175;51.978;5.330;2023-07-16T00:03:00;21.17;;;19.77;;
14187;SDS011;7175;51.978;5.330;2023-07-16T00:05:28;21.57;;;20.17;;
14187;SDS011;7175;51.978;5.330;2023-07-16T00:07:56;22.37;;;20.97;;
14187;SDS011;7175;51.978;5.330;2023-07-16T00:10:24;22.07;;;20.67;;
14187;SDS011;7175;51.978;5.330;2023-07-16T00:12:53;22.00;;;20.60;;
14187;SDS011;7175;51.978;5.330;2023-07-16T00:15:21;21.80;;;20.40;;
14187;SDS011;7175;51.978;5.330;2023-07-16T00:17:49;20.93;;;19.63;;
14187;SDS011;7175;51.978;5.330;2023-07-16T00:20:19;20.80;;;19.50;;
14187;SDS011;7175;51.978;5.330;2023-07-16T00:22:47;21.00;;;19.70;;
14187;SDS011;7175;51.978;5.330;2023-07-16T00:25:15;21.70;;;20.30;;
14187;SDS011;7175;51.978;5.330;2023-07-16T00:27:43;21.17;;;19.80;;
14187;SDS011;7175;51.978;5.330;2023-07-16T00:30:11;21.10;;;19.70;;
14187;SDS011;7175;51.978;5.330;2023-07-16T00:32:39;21.80;;;20.30;;
14187;SDS011;7175;51.978;5.330;2023-07-16T00:35:08;20.87;;;19.47;;
14187;SDS011;7175;51.978;5.330;2023-07-16T00:37:38;20.50;;;19.10;;
14187;SDS011;7175;51.978;5.330;2023-07-16T00:40:06;20.33;;;18.93;;
14187;SDS011;7175;51.978;5.330;2023-07-16T00:42:35;20.57;;;19.17;;
14187;SDS011;7175;51.978;5.330;2023-07-16T00:45:04;21.50;;;20.10;;
14187;SDS011;7175;51.978;5.330;2023-07-16T00:47:40;21.90;;;20.47;;
14187;SDS011;7175;51.978;5.330;2023-07-16T00:50:10;22.30;;;20.80;;
14187;SDS011;7175;51.978;5.330;2023-07-16T00:52:43;21.00;;;19.60;;
14187;SDS011;7175;51.978;5.330;2023-07-16T00:55:12;20.97;;;19.57;;
14187;SDS011;7175;51.978;5.330;2023-07-16T00:57:40;21.47;;;20.07;;
14187;SDS011;7175;51.978;5.330;2023-07-16T01:00:09;21.97;;;20.47;;
14187;SDS011;7175;51.978;5.330;2023-07-16T01:02:49;23.10;;;21.60;;
14187;SDS011;7175;51.978;5.330;2023-07-16T01:05:17;22.77;;;21.27;;
14187;SDS011;7175;51.978;5.330;2023-07-16T01:07:49;23.40;;;21.90;;
14187;SDS011;7175;51.978;5.330;2023-07-16T01:10:23;22.90;;;21.40;;
14187;SDS011;7175;51.978;5.330;2023-07-16T01:12:53;22.57;;;21.07;;
14187;SDS011;7175;51.978;5.330;2023-07-16T01:15:23;22.80;;;21.30;;
14187;SDS011;7175;51.978;5.330;2023-07-16T01:17:52;22.07;;;20.67;;
14187;SDS011;7175;51.978;5.330;2023-07-16T01:20:20;22.43;;;21.03;;
14187;SDS011;7175;51.978;5.330;2023-07-16T01:25:48;23.20;;;21.70;;
14187;SDS011;7175;51.978;5.330;2023-07-16T01:28:46;23.07;;;21.57;;
14187;SDS011;7175;51.978;5.330;2023-07-16T01:31:35;22.83;;;21.33;;
14187;SDS011;7175;51.978;5.330;2023-07-16T01:34:03;22.93;;;21.43;;
14187;SDS011;7175;51.978;5.330;2023-07-16T01:36:33;22.90;;;21.40;;
14187;SDS011;7175;51.978;5.330;2023-07-16T01:39:03;23.03;;;21.53;;
14187;SDS011;7175;51.978;5.330;2023-07-16T01:41:32;22.80;;;21.30;;
14187;SDS011;7175;51.978;5.330;2023-07-16T01:44:02;22.33;;;20.93;;
14187;SDS011;7175;51.978;5.330;2023-07-16T01:46:32;22.30;;;20.90;;
14187;SDS011;7175;51.978;5.330;2023-07-16T01:49:01;23.00;;;21.50;;
14187;SDS011;7175;51.978;5.330;2023-07-16T01:51:30;22.93;;;21.43;;
14187;SDS011;7175;51.978;5.330;2023-07-16T01:53:58;22.10;;;20.67;;
14187;SDS011;7175;51.978;5.330;2023-07-16T01:56:29;22.50;;;21.00;;
14187;SDS011;7175;51.978;5.330;2023-07-16T01:58:57;22.80;;;21.30;;
14187;SDS011;7175;51.978;5.330;2023-07-16T02:01:26;22.17;;;20.77;;
14187;SDS011;7175;51.978;5.330;2023-07-16T02:03:56;22.53;;;21.07;;
14187;SDS011;7175;51.978;5.330;2023-07-16T02:06:24;23.43;;;21.93;;
14187;SDS011;7175;51.978;5.330;2023-07-16T02:08:53;24.17;;;22.57;;
14187;SDS011;7175;51.978;5.330;2023-07-16T02:11:21;23.77;;;22.27;;
14187;SDS011;7175;51.978;5.330;2023-07-16T02:13:50;23.97;;;22.47;;
14187;SDS011;7175;51.978;5.330;2023-07-16T02:16:18;24.10;;;22.60;;
14187;SDS011;7175;51.978;5.330;2023-07-16T02:18:46;23.27;;;21.77;;
14187;SDS011;7175;51.978;5.330;2023-07-16T02:21:15;23.07;;;21.57;;
14187;SDS011;7175;51.978;5.330;2023-07-16T02:23:44;22.83;;;21.33;;
14187;SDS011;7175;51.978;5.330;2023-07-16T02:26:12;23.63;;;22.13;;
14187;SDS011;7175;51.978;5.330;2023-07-16T02:28:41;23.93;;;22.43;;
14187;SDS011;7175;51.978;5.330;2023-07-16T02:31:09;23.23;;;21.73;;
14187;SDS011;7175;51.978;5.330;2023-07-16T02:33:37;23.47;;;21.97;;
14187;SDS011;7175;51.978;5.330;2023-07-16T02:36:05;23.37;;;21.87;;
14187;SDS011;7175;51.978;5.330;2023-07-16T02:38:35;23.77;;;22.27;;
14187;SDS011;7175;51.978;5.330;2023-07-16T02:41:03;22.77;;;21.27;;
14187;SDS011;7175;51.978;5.330;2023-07-16T02:43:31;22.20;;;20.70;;
14187;SDS011;7175;51.978;5.330;2023-07-16T02:45:59;23.10;;;21.60;;
14187;SDS011;7175;51.978;5.330;2023-07-16T02:48:28;23.10;;;21.60;;
14187;SDS011;7175;51.978;5.330;2023-07-16T02:50:56;22.93;;;21.43;;
14187;SDS011;7175;51.978;5.330;2023-07-16T02:53:24;24.87;;;23.27;;
14187;SDS011;7175;51.978;5.330;2023-07-16T02:55:53;24.33;;;22.83;;
14187;SDS011;7175;51.978;5.330;2023-07-16T02:58:21;23.77;;;22.27;;
14187;SDS011;7175;51.978;5.330;2023-07-16T03:00:50;24.20;;;22.70;;
14187;SDS011;7175;51.978;5.330;2023-07-16T03:03:18;23.80;;;22.30;;
14187;SDS011;7175;51.978;5.330;2023-07-16T03:05:47;22.97;;;21.57;;
14187;SDS011;7175;51.978;5.330;2023-07-16T03:08:17;23.27;;;21.87;;
14187;SDS011;7175;51.978;5.330;2023-07-16T03:10:46;23.50;;;22.07;;
14187;SDS011;7175;51.978;5.330;2023-07-16T03:13:16;24.33;;;22.83;;
14187;SDS011;7175;51.978;5.330;2023-07-16T03:15:44;24.83;;;23.33;;
14187;SDS011;7175;51.978;5.330;2023-07-16T03:18:12;24.73;;;23.23;;
14187;SDS011;7175;51.978;5.330;2023-07-16T03:20:41;23.80;;;22.30;;
14187;SDS011;7175;51.978;5.330;2023-07-16T03:23:10;23.93;;;22.43;;
14187;SDS011;7175;51.978;5.330;2023-07-16T03:25:38;24.63;;;23.13;;
14187;SDS011;7175;51.978;5.330;2023-07-16T03:28:07;22.40;;;20.90;;
14187;SDS011;7175;51.978;5.330;2023-07-16T03:30:38;22.20;;;20.70;;
14187;SDS011;7175;51.978;5.330;2023-07-16T03:33:07;21.77;;;20.27;;
14187;SDS011;7175;51.978;5.330;2023-07-16T03:35:35;22.23;;;20.73;;
14187;SDS011;7175;51.978;5.330;2023-07-16T03:38:06;22.60;;;21.10;;
14187;SDS011;7175;51.978;5.330;2023-07-16T03:40:35;22.30;;;20.80;;
14187;SDS011;7175;51.978;5.330;2023-07-16T03:43:06;21.67;;;20.27;;
14187;SDS011;7175;51.978;5.330;2023-07-16T03:45:36;22.47;;;20.97;;
14187;SDS011;7175;51.978;5.330;2023-07-16T03:48:05;21.77;;;20.37;;
14187;SDS011;7175;51.978;5.330;2023-07-16T03:50:33;22.43;;;20.93;;
14187;SDS011;7175;51.978;5.330;2023-07-16T03:53:03;23.03;;;21.47;;
14187;SDS011;7175;51.978;5.330;2023-07-16T03:55:31;22.53;;;21.03;;
14187;SDS011;7175;51.978;5.330;2023-07-16T03:57:59;22.93;;;21.33;;
14187;SDS011;7175;51.978;5.330;2023-07-16T04:00:29;23.37;;;21.67;;
14187;SDS011;7175;51.978;5.330;2023-07-16T04:02:58;22.80;;;21.10;;
14187;SDS011;7175;51.978;5.330;2023-07-16T04:05:27;23.00;;;21.30;;
14187;SDS011;7175;51.978;5.330;2023-07-16T04:07:55;22.60;;;20.90;;
14187;SDS011;7175;51.978;5.330;2023-07-16T04:10:23;22.40;;;20.70;;
14187;SDS011;7175;51.978;5.330;2023-07-16T04:12:53;21.83;;;20.23;;
14187;SDS011;7175;51.978;5.330;2023-07-16T04:15:21;21.77;;;20.17;;
14187;SDS011;7175;51.978;5.330;2023-07-16T04:17:49;22.23;;;20.53;;
14187;SDS011;7175;51.978;5.330;2023-07-16T04:20:19;21.90;;;20.30;;
14187;SDS011;7175;51.978;5.330;2023-07-16T04:22:48;22.10;;;20.40;;
14187;SDS011;7175;51.978;5.330;2023-07-16T04:25:16;22.50;;;20.80;;
14187;SDS011;7175;51.978;5.330;2023-07-16T04:27:45;22.20;;;20.50;;
14187;SDS011;7175;51.978;5.330;2023-07-16T04:30:13;22.10;;;20.40;;
14187;SDS011;7175;51.978;5.330;2023-07-16T04:32:41;21.70;;;20.10;;
14187;SDS011;7175;51.978;5.330;2023-07-16T04:35:10;21.73;;;20.13;;
14187;SDS011;7175;51.978;5.330;2023-07-16T04:37:39;21.80;;;20.20;;
14187;SDS011;7175;51.978;5.330;2023-07-16T04:40:08;22.13;;;20.53;;
14187;SDS011;7175;51.978;5.330;2023-07-16T04:42:37;21.97;;;20.37;;
14187;SDS011;7175;51.978;5.330;2023-07-16T04:45:06;21.63;;;20.03;;
14187;SDS011;7175;51.978;5.330;2023-07-16T04:47:38;21.90;;;20.30;;
14187;SDS011;7175;51.978;5.330;2023-07-16T04:50:07;21.93;;;20.33;;
14187;SDS011;7175;51.978;5.330;2023-07-16T04:52:35;21.60;;;20.00;;
14187;SDS011;7175;51.978;5.330;2023-07-16T04:55:07;21.10;;;19.60;;
14187;SDS011;7175;51.978;5.330;2023-07-16T04:57:36;21.13;;;19.63;;
14187;SDS011;7175;51.978;5.330;2023-07-16T05:00:05;21.70;;;20.10;;
14187;SDS011;7175;51.978;5.330;2023-07-16T05:02:34;21.17;;;19.67;;
14187;SDS011;7175;51.978;5.330;2023-07-16T05:05:05;21.47;;;19.87;;
14187;SDS011;7175;51.978;5.330;2023-07-16T05:07:33;21.30;;;19.80;;
14187;SDS011;7175;51.978;5.330;2023-07-16T05:10:04;21.17;;;19.63;;
14187;SDS011;7175;51.978;5.330;2023-07-16T05:12:39;21.70;;;20.10;;
14187;SDS011;7175;51.978;5.330;2023-07-16T05:15:08;21.27;;;19.67;;
14187;SDS011;7175;51.978;5.330;2023-07-16T05:17:37;21.33;;;19.73;;
14187;SDS011;7175;51.978;5.330;2023-07-16T05:20:07;21.63;;;20.03;;
14187;SDS011;7175;51.978;5.330;2023-07-16T05:22:36;21.43;;;19.83;;
14187;SDS011;7175;51.978;5.330;2023-07-16T05:25:05;21.63;;;20.03;;
14187;SDS011;7175;51.978;5.330;2023-07-16T05:27:34;21.70;;;20.10;;
14187;SDS011;7175;51.978;5.330;2023-07-16T05:30:05;21.30;;;19.70;;
14187;SDS011;7175;51.978;5.330;2023-07-16T05:32:34;21.23;;;19.63;;
14187;SDS011;7175;51.978;5.330;2023-07-16T05:35:03;21.17;;;19.57;;
14187;SDS011;7175;51.978;5.330;2023-07-16T05:37:32;20.60;;;19.10;;
14187;SDS011;7175;51.978;5.330;2023-07-16T05:40:01;20.43;;;18.93;;
14187;SDS011;7175;51.978;5.330;2023-07-16T05:42:30;21.03;;;19.43;;
14187;SDS011;7175;51.978;5.330;2023-07-16T05:44:59;21.60;;;19.90;;
14187;SDS011;7175;51.978;5.330;2023-07-16T05:47:29;21.57;;;19.87;;
14187;SDS011;7175;51.978;5.330;2023-07-16T05:49:57;21.57;;;19.87;;
14187;SDS011;7175;51.978;5.330;2023-07-16T05:52:25;21.20;;;19.50;;
14187;SDS011;7175;51.978;5.330;2023-07-16T05:54:53;21.47;;;19.77;;
14187;SDS011;7175;51.978;5.330;2023-07-16T05:57:21;21.23;;;19.53;;
14187;SDS011;7175;51.978;5.330;2023-07-16T05:59:50;20.90;;;19.30;;
14187;SDS011;7175;51.978;5.330;2023-07-16T06:02:22;20.63;;;19.03;;
14187;SDS011;7175;51.978;5.330;2023-07-16T06:04:51;20.60;;;19.00;;
14187;SDS011;7175;51.978;5.330;2023-07-16T06:07:20;21.10;;;19.50;;
14187;SDS011;7175;51.978;5.330;2023-07-16T06:09:52;20.70;;;19.10;;
14187;SDS011;7175;51.978;5.330;2023-07-16T06:12:20;20.87;;;19.27;;
14187;SDS011;7175;51.978;5.330;2023-07-16T06:14:48;20.97;;;19.37;;
14187;SDS011;7175;51.978;5.330;2023-07-16T06:17:16;20.57;;;19.07;;
14187;SDS011;7175;51.978;5.330;2023-07-16T06:19:45;20.47;;;18.97;;
14187;SDS011;7175;51.978;5.330;2023-07-16T06:22:16;20.30;;;18.80;;
14187;SDS011;7175;51.978;5.330;2023-07-16T06:24:44;20.70;;;19.20;;
14187;SDS011;7175;51.978;5.330;2023-07-16T06:27:12;20.60;;;19.10;;
14187;SDS011;7175;51.978;5.330;2023-07-16T06:29:40;20.47;;;18.97;;
14187;SDS011;7175;51.978;5.330;2023-07-16T06:32:09;20.60;;;19.10;;
14187;SDS011;7175;51.978;5.330;2023-07-16T06:34:37;20.63;;;19.13;;
14187;SDS011;7175;51.978;5.330;2023-07-16T06:37:05;20.67;;;19.17;;
14187;SDS011;7175;51.978;5.330;2023-07-16T06:39:35;20.90;;;19.30;;
14187;SDS011;7175;51.978;5.330;2023-07-16T06:42:04;20.53;;;19.03;;
14187;SDS011;7175;51.978;5.330;2023-07-16T06:44:33;20.70;;;19.13;;
14187;SDS011;7175;51.978;5.330;2023-07-16T06:47:04;20.20;;;18.70;;
14187;SDS011;7175;51.978;5.330;2023-07-16T06:49:32;19.87;;;18.37;;
14187;SDS011;7175;51.978;5.330;2023-07-16T06:52:01;20.37;;;18.87;;
14187;SDS011;7175;51.978;5.330;2023-07-16T06:54:29;20.07;;;18.57;;
14187;SDS011;7175;51.978;5.330;2023-07-16T06:56:59;20.77;;;19.27;;
14187;SDS011;7175;51.978;5.330;2023-07-16T06:59:27;20.00;;;18.50;;
14187;SDS011;7175;51.978;5.330;2023-07-16T07:01:59;20.30;;;18.80;;
14187;SDS011;7175;51.978;5.330;2023-07-16T07:04:29;20.57;;;19.07;;
14187;SDS011;7175;51.978;5.330;2023-07-16T07:06:57;20.97;;;19.47;;
14187;SDS011;7175;51.978;5.330;2023-07-16T07:09:25;20.07;;;18.57;;
14187;SDS011;7175;51.978;5.330;2023-07-16T07:11:54;20.60;;;19.10;;
14187;SDS011;7175;51.978;5.330;2023-07-16T07:14:23;19.77;;;18.27;;
14187;SDS011;7175;51.978;5.330;2023-07-16T07:16:52;20.93;;;19.33;;
14187;SDS011;7175;51.978;5.330;2023-07-16T07:19:20;20.63;;;19.13;;
14187;SDS011;7175;51.978;5.330;2023-07-16T07:21:50;20.13;;;18.60;;
14187;SDS011;7175;51.978;5.330;2023-07-16T07:24:18;21.20;;;19.60;;
14187;SDS011;7175;51.978;5.330;2023-07-16T07:26:50;21.33;;;19.63;;
14187;SDS011;7175;51.978;5.330;2023-07-16T07:29:19;21.90;;;20.20;;
14187;SDS011;7175;51.978;5.330;2023-07-16T07:31:48;21.23;;;19.63;;
14187;SDS011;7175;51.978;5.330;2023-07-16T07:34:16;21.50;;;19.80;;
14187;SDS011;7175;51.978;5.330;2023-07-16T07:36:45;21.80;;;20.10;;
14187;SDS011;7175;51.978;5.330;2023-07-16T07:39:13;21.07;;;19.43;;
14187;SDS011;7175;51.978;5.330;2023-07-16T07:41:43;21.00;;;19.40;;
14187;SDS011;7175;51.978;5.330;2023-07-16T07:44:11;20.90;;;19.20;;
14187;SDS011;7175;51.978;5.330;2023-07-16T07:46:40;20.77;;;19.17;;
14187;SDS011;7175;51.978;5.330;2023-07-16T07:49:10;20.67;;;19.07;;
14187;SDS011;7175;51.978;5.330;2023-07-16T07:51:39;20.87;;;19.27;;
14187;SDS011;7175;51.978;5.330;2023-07-16T07:54:07;20.73;;;19.13;;
14187;SDS011;7175;51.978;5.330;2023-07-16T07:56:36;20.47;;;18.87;;
14187;SDS011;7175;51.978;5.330;2023-07-16T07:59:05;19.93;;;18.43;;
14187;SDS011;7175;51.978;5.330;2023-07-16T08:01:34;19.87;;;18.37;;
14187;SDS011;7175;51.978;5.330;2023-07-16T08:04:03;20.30;;;18.80;;
14187;SDS011;7175;51.978;5.330;2023-07-16T08:06:34;19.03;;;17.63;;
14187;SDS011;7175;51.978;5.330;2023-07-16T08:09:02;20.13;;;18.63;;
14187;SDS011;7175;51.978;5.330;2023-07-16T08:11:31;20.07;;;18.67;;
14187;SDS011;7175;51.978;5.330;2023-07-16T08:14:02;20.00;;;18.50;;
14187;SDS011;7175;51.978;5.330;2023-07-16T08:16:31;19.87;;;18.37;;
14187;SDS011;7175;51.978;5.330;2023-07-16T08:18:59;19.23;;;17.83;;
14187;SDS011;7175;51.978;5.330;2023-07-16T08:21:31;19.50;;;18.10;;
14187;SDS011;7175;51.978;5.330;2023-07-16T08:24:04;19.97;;;18.47;;
14187;SDS011;7175;51.978;5.330;2023-07-16T08:26:33;20.10;;;18.60;;
14187;SDS011;7175;51.978;5.330;2023-07-16T08:29:03;20.17;;;18.67;;
14187;SDS011;7175;51.978;5.330;2023-07-16T08:31:32;19.80;;;18.30;;
14187;SDS011;7175;51.978;5.330;2023-07-16T08:34:00;19.33;;;17.93;;
14187;SDS011;7175;51.978;5.330;2023-07-16T08:36:30;19.97;;;18.57;;
14187;SDS011;7175;51.978;5.330;2023-07-16T08:39:01;19.97;;;18.57;;
14187;SDS011;7175;51.978;5.330;2023-07-16T08:41:29;20.63;;;19.13;;
14187;SDS011;7175;51.978;5.330;2023-07-16T08:43:57;19.67;;;18.27;;
14187;SDS011;7175;51.978;5.330;2023-07-16T08:46:26;19.30;;;17.80;;
14187;SDS011;7175;51.978;5.330;2023-07-16T08:48:54;19.97;;;18.57;;
14187;SDS011;7175;51.978;5.330;2023-07-16T08:51:24;20.10;;;18.60;;
14187;SDS011;7175;51.978;5.330;2023-07-16T08:53:54;20.23;;;18.73;;
14187;SDS011;7175;51.978;5.330;2023-07-16T08:56:24;20.10;;;18.60;;
14187;SDS011;7175;51.978;5.330;2023-07-16T08:58:53;20.60;;;19.10;;
14187;SDS011;7175;51.978;5.330;2023-07-16T09:01:23;21.07;;;19.57;;
14187;SDS011;7175;51.978;5.330;2023-07-16T09:03:51;20.50;;;19.00;;
14187;SDS011;7175;51.978;5.330;2023-07-16T09:06:20;20.33;;;18.83;;
14187;SDS011;7175;51.978;5.330;2023-07-16T09:08:48;21.43;;;19.83;;
14187;SDS011;7175;51.978;5.330;2023-07-16T09:11:17;21.23;;;19.63;;
14187;SDS011;7175;51.978;5.330;2023-07-16T09:13:49;21.10;;;19.50;;
14187;SDS011;7175;51.978;5.330;2023-07-16T09:16:18;21.07;;;19.47;;
14187;SDS011;7175;51.978;5.330;2023-07-16T09:18:47;21.50;;;19.90;;
14187;SDS011;7175;51.978;5.330;2023-07-16T09:21:16;20.90;;;19.30;;
14187;SDS011;7175;51.978;5.330;2023-07-16T09:23:44;21.13;;;19.43;;
14187;SDS011;7175;51.978;5.330;2023-07-16T09:26:12;21.10;;;19.40;;
14187;SDS011;7175;51.978;5.330;2023-07-16T09:28:42;20.63;;;19.03;;
14187;SDS011;7175;51.978;5.330;2023-07-16T09:31:11;21.47;;;19.80;;
14187;SDS011;7175;51.978;5.330;2023-07-16T09:33:39;20.97;;;19.37;;
14187;SDS011;7175;51.978;5.330;2023-07-16T09:36:08;21.13;;;19.53;;
14187;SDS011;7175;51.978;5.330;2023-07-16T09:38:37;21.70;;;20.00;;
14187;SDS011;7175;51.978;5.330;2023-07-16T09:41:05;20.40;;;18.80;;
14187;SDS011;7175;51.978;5.330;2023-07-16T09:43:34;20.10;;;18.60;;
14187;SDS011;7175;51.978;5.330;2023-07-16T09:46:03;19.83;;;18.43;;
14187;SDS011;7175;51.978;5.330;2023-07-16T09:48:33;20.93;;;19.43;;
14187;SDS011;7175;51.978;5.330;2023-07-16T09:51:01;20.30;;;18.80;;
14187;SDS011;7175;51.978;5.330;2023-07-16T09:53:30;20.30;;;18.80;;
14187;SDS011;7175;51.978;5.330;2023-07-16T09:56:02;20.50;;;19.00;;
14187;SDS011;7175;51.978;5.330;2023-07-16T09:58:35;19.77;;;18.37;;
14187;SDS011;7175;51.978;5.330;2023-07-16T10:01:04;20.40;;;18.90;;
14187;SDS011;7175;51.978;5.330;2023-07-16T10:03:35;20.57;;;19.07;;
14187;SDS011;7175;51.978;5.330;2023-07-16T10:06:05;20.53;;;19.03;;
14187;SDS011;7175;51.978;5.330;2023-07-16T10:08:35;20.03;;;18.53;;
14187;SDS011;7175;51.978;5.330;2023-07-16T10:11:03;20.47;;;18.97;;
14187;SDS011;7175;51.978;5.330;2023-07-16T10:13:33;20.57;;;19.00;;
14187;SDS011;7175;51.978;5.330;2023-07-16T10:16:02;20.13;;;18.63;;
14187;SDS011;7175;51.978;5.330;2023-07-16T10:18:31;20.80;;;19.20;;
14187;SDS011;7175;51.978;5.330;2023-07-16T10:21:06;21.40;;;19.80;;
14187;SDS011;7175;51.978;5.330;2023-07-16T10:23:39;21.10;;;19.60;;
14187;SDS011;7175;51.978;5.330;2023-07-16T10:26:09;20.67;;;19.17;;
14187;SDS011;7175;51.978;5.330;2023-07-16T10:28:43;20.70;;;19.20;;
14187;SDS011;7175;51.978;5.330;2023-07-16T10:31:19;19.93;;;18.50;;
14187;SDS011;7175;51.978;5.330;2023-07-16T10:33:58;20.17;;;18.67;;
14187;SDS011;7175;51.978;5.330;2023-07-16T10:36:29;19.33;;;17.93;;
14187;SDS011;7175;51.978;5.330;2023-07-16T10:39:03;19.67;;;18.27;;
14187;SDS011;7175;51.978;5.330;2023-07-16T10:41:31;19.83;;;18.43;;
14187;SDS011;7175;51.978;5.330;2023-07-16T10:44:00;19.50;;;18.10;;
14187;SDS011;7175;51.978;5.330;2023-07-16T10:46:28;19.80;;;18.37;;
14187;SDS011;7175;51.978;5.330;2023-07-16T10:48:58;20.27;;;18.83;;
14187;SDS011;7175;51.978;5.330;2023-07-16T10:51:28;20.93;;;19.33;;
14187;SDS011;7175;51.978;5.330;2023-07-16T10:53:56;20.93;;;19.33;;
14187;SDS011;7175;51.978;5.330;2023-07-16T10:56:26;20.23;;;18.73;;
14187;SDS011;7175;51.978;5.330;2023-07-16T10:58:54;21.03;;;19.43;;
14187;SDS011;7175;51.978;5.330;2023-07-16T11:01:22;20.70;;;19.10;;
14187;SDS011;7175;51.978;5.330;2023-07-16T11:03:51;20.70;;;19.10;;
14187;SDS011;7175;51.978;5.330;2023-07-16T11:06:19;21.13;;;19.53;;
14187;SDS011;7175;51.978;5.330;2023-07-16T11:08:49;20.80;;;19.17;;
14187;SDS011;7175;51.978;5.330;2023-07-16T11:11:27;21.10;;;19.40;;
14187;SDS011;7175;51.978;5.330;2023-07-16T11:13:56;21.27;;;19.57;;
14187;SDS011;7175;51.978;5.330;2023-07-16T11:16:25;21.03;;;19.33;;
14187;SDS011;7175;51.978;5.330;2023-07-16T11:18:54;20.73;;;19.03;;
14187;SDS011;7175;51.978;5.330;2023-07-16T11:21:23;21.57;;;19.87;;
14187;SDS011;7175;51.978;5.330;2023-07-16T11:23:54;21.27;;;19.57;;
14187;SDS011;7175;51.978;5.330;2023-07-16T11:26:22;20.33;;;18.83;;
14187;SDS011;7175;51.978;5.330;2023-07-16T11:28:51;20.90;;;19.40;;
14187;SDS011;7175;51.978;5.330;2023-07-16T11:31:19;20.50;;;19.00;;
14187;SDS011;7175;51.978;5.330;2023-07-16T11:33:50;20.33;;;18.83;;
14187;SDS011;7175;51.978;5.330;2023-07-16T11:36:18;20.70;;;19.20;;
14187;SDS011;7175;51.978;5.330;2023-07-16T11:38:48;20.80;;;19.30;;
14187;SDS011;7175;51.978;5.330;2023-07-16T11:41:21;20.73;;;19.23;;
14187;SDS011;7175;51.978;5.330;2023-07-16T11:43:50;20.50;;;19.00;;
14187;SDS011;7175;51.978;5.330;2023-07-16T11:46:18;20.50;;;19.00;;
14187;SDS011;7175;51.978;5.330;2023-07-16T11:48:47;20.20;;;18.70;;
14187;SDS011;7175;51.978;5.330;2023-07-16T11:51:17;20.30;;;18.80;;
14187;SDS011;7175;51.978;5.330;2023-07-16T11:53:45;20.50;;;19.00;;
14187;SDS011;7175;51.978;5.330;2023-07-16T11:56:14;20.43;;;18.93;;
14187;SDS011;7175;51.978;5.330;2023-07-16T11:58:44;20.33;;;18.83;;
14187;SDS011;7175;51.978;5.330;2023-07-16T12:01:13;20.13;;;18.53;;
14187;SDS011;7175;51.978;5.330;2023-07-16T12:03:42;20.77;;;19.17;;
14187;SDS011;7175;51.978;5.330;2023-07-16T12:06:12;20.97;;;19.37;;
14187;SDS011;7175;51.978;5.330;2023-07-16T12:08:43;21.83;;;20.23;;
14187;SDS011;7175;51.978;5.330;2023-07-16T12:11:17;21.70;;;20.10;;
14187;SDS011;7175;51.978;5.330;2023-07-16T12:13:48;21.30;;;19.70;;
14187;SDS011;7175;51.978;5.330;2023-07-16T12:16:20;21.60;;;19.90;;
14187;SDS011;7175;51.978;5.330;2023-07-16T12:18:51;20.60;;;19.00;;
14187;SDS011;7175;51.978;5.330;2023-07-16T12:21:22;19.90;;;18.30;;
14187;SDS011;7175;51.978;5.330;2023-07-16T12:23:50;19.97;;;18.43;;
14187;SDS011;7175;51.978;5.330;2023-07-16T12:26:18;21.47;;;19.87;;
14187;SDS011;7175;51.978;5.330;2023-07-16T12:28:49;20.10;;;18.60;;
14187;SDS011;7175;51.978;5.330;2023-07-16T12:31:18;21.13;;;19.43;;
14187;SDS011;7175;51.978;5.330;2023-07-16T12:33:47;20.37;;;18.77;;
14187;SDS011;7175;51.978;5.330;2023-07-16T12:36:19;20.80;;;19.10;;
14187;SDS011;7175;51.978;5.330;2023-07-16T12:38:48;19.93;;;18.23;;
14187;SDS011;7175;51.978;5.330;2023-07-16T12:41:16;19.83;;;18.23;;
14187;SDS011;7175;51.978;5.330;2023-07-16T12:43:45;20.30;;;18.60;;
14187;SDS011;7175;51.978;5.330;2023-07-16T12:46:15;21.47;;;19.77;;
14187;SDS011;7175;51.978;5.330;2023-07-16T12:48:47;20.50;;;18.80;;
14187;SDS011;7175;51.978;5.330;2023-07-16T12:51:18;21.07;;;19.37;;
14187;SDS011;7175;51.978;5.330;2023-07-16T12:53:46;20.90;;;19.20;;
14187;SDS011;7175;51.978;5.330;2023-07-16T12:56:17;19.67;;;18.07;;
14187;SDS011;7175;51.978;5.330;2023-07-16T12:58:46;20.07;;;18.37;;
14187;SDS011;7175;51.978;5.330;2023-07-16T13:01:16;20.40;;;18.70;;
14187;SDS011;7175;51.978;5.330;2023-07-16T13:03:45;20.57;;;18.87;;
14187;SDS011;7175;51.978;5.330;2023-07-16T13:06:14;19.83;;;18.33;;
14187;SDS011;7175;51.978;5.330;2023-07-16T13:08:42;19.83;;;18.33;;
14187;SDS011;7175;51.978;5.330;2023-07-16T13:11:11;19.93;;;18.43;;
14187;SDS011;7175;51.978;5.330;2023-07-16T13:13:39;19.50;;;18.00;;
14187;SDS011;7175;51.978;5.330;2023-07-16T13:16:08;19.50;;;18.00;;
14187;SDS011;7175;51.978;5.330;2023-07-16T13:18:38;19.37;;;17.87;;
14187;SDS011;7175;51.978;5.330;2023-07-16T13:21:08;19.60;;;18.10;;
14187;SDS011;7175;51.978;5.330;2023-07-16T13:23:38;19.77;;;18.17;;
14187;SDS011;7175;51.978;5.330;2023-07-16T13:26:07;19.40;;;17.90;;
14187;SDS011;7175;51.978;5.330;2023-07-16T13:28:35;19.90;;;18.40;;
14187;SDS011;7175;51.978;5.330;2023-07-16T13:31:03;20.57;;;19.07;;
14187;SDS011;7175;51.978;5.330;2023-07-16T13:33:33;20.33;;;18.83;;
14187;SDS011;7175;51.978;5.330;2023-07-16T13:36:04;20.10;;;18.60;;
14187;SDS011;7175;51.978;5.330;2023-07-16T13:38:33;19.90;;;18.40;;
14187;SDS011;7175;51.978;5.330;2023-07-16T13:41:01;19.70;;;18.23;;
14187;SDS011;7175;51.978;5.330;2023-07-16T13:43:30;20.13;;;18.63;;
14187;SDS011;7175;51.978;5.330;2023-07-16T13:45:58;20.13;;;18.63;;
14187;SDS011;7175;51.978;5.330;2023-07-16T13:48:27;19.77;;;18.27;;
14187;SDS011;7175;51.978;5.330;2023-07-16T13:51:15;20.10;;;18.60;;
14187;SDS011;7175;51.978;5.330;2023-07-16T13:53:43;18.70;;;17.30;;
14187;SDS011;7175;51.978;5.330;2023-07-16T13:56:11;19.90;;;18.40;;
14187;SDS011;7175;51.978;5.330;2023-07-16T13:58:40;21.77;;;20.17;;
14187;SDS011;7175;51.978;5.330;2023-07-16T14:01:08;21.17;;;19.57;;
14187;SDS011;7175;51.978;5.330;2023-07-16T14:03:36;21.97;;;20.37;;
14187;SDS011;7175;51.978;5.330;2023-07-16T14:06:05;19.80;;;18.30;;
14187;SDS011;7175;51.978;5.330;2023-07-16T14:08:35;20.43;;;18.93;;
14187;SDS011;7175;51.978;5.330;2023-07-16T14:11:03;21.77;;;20.27;;
14187;SDS011;7175;51.978;5.330;2023-07-16T14:13:32;20.20;;;18.60;;
14187;SDS011;7175;51.978;5.330;2023-07-16T14:16:00;22.57;;;20.87;;
14187;SDS011;7175;51.978;5.330;2023-07-16T14:18:29;19.10;;;17.60;;
14187;SDS011;7175;51.978;5.330;2023-07-16T14:20:58;19.50;;;17.93;;
14187;SDS011;7175;51.978;5.330;2023-07-16T14:23:29;20.47;;;18.77;;
14187;SDS011;7175;51.978;5.330;2023-07-16T14:26:02;19.67;;;18.07;;
14187;SDS011;7175;51.978;5.330;2023-07-16T14:28:30;20.57;;;18.87;;
14187;SDS011;7175;51.978;5.330;2023-07-16T14:30:59;20.07;;;18.37;;
14187;SDS011;7175;51.978;5.330;2023-07-16T14:33:27;20.37;;;18.67;;
14187;SDS011;7175;51.978;5.330;2023-07-16T14:35:55;19.67;;;18.07;;
14187;SDS011;7175;51.978;5.330;2023-07-16T14:38:26;19.80;;;18.20;;
14187;SDS011;7175;51.978;5.330;2023-07-16T14:40:55;20.10;;;18.50;;
14187;SDS011;7175;51.978;5.330;2023-07-16T14:43:24;19.60;;;18.00;;
14187;SDS011;7175;51.978;5.330;2023-07-16T14:45:53;19.77;;;18.17;;
14187;SDS011;7175;51.978;5.330;2023-07-16T14:48:21;20.17;;;18.57;;